Time;durP1;ratioP1;P1;durP2;ratioP2;P2;SDS_P1;SDS_P2;PMS_P1;PMS_P2;Temp;Humidity;BMP_temperature;BMP_pressure;BME280_temperature;BME280_humidity;BME280_pressure;Samples;Min_cycle;Max_cycle;Signal;HPM_P1;HPM_P2
2022/05/25 05:47:57;;;;;;;9.23;8.20;;;;;;;;;;5943918;23;20231;-89
2022/05/25 05:50:24;;;;;;;9.23;8.10;;;;;;;;;;4956161;28;20106;-84
2022/05/25 05:52:52;;;;;;;10.13;8.43;;;;;;;;;;4956225;29;20054;-85
2022/05/25 05:55:18;;;;;;;11.32;8.65;;;;;;;;;;4956270;28;20093;-84
2022/05/25 05:57:44;;;;;;;10.23;8.80;;;;;;;;;;4956666;29;20470;-84
2022/05/25 06:00:11;;;;;;;9.35;8.35;;;;;;;;;;4957393;29;20034;-87
2022/05/25 09:36:55;;;;;;;2.70;2.03;;;;;;;;;;4915836;29;20060;-86
2022/05/25 09:39:33;;;;;;;2.60;2.15;;;;;;;;;;4921504;29;20123;-83
2022/05/25 09:42:04;;;;;;;2.55;2.30;;;;;;;;;;4920552;29;20467;-86
2022/05/25 09:44:29;;;;;;;3.53;2.60;;;;;;;;;;4940834;29;20107;-86
2022/05/25 09:46:55;;;;;;;2.35;2.15;;;;;;;;;;4942769;29;20066;-84
2022/05/25 09:49:36;;;;;;;2.58;2.35;;;;;;;;;;4940839;29;20039;-88
2022/05/25 09:52:14;;;;;;;4.80;2.25;;;;;;;;;;4941083;29;20071;-91
2022/05/25 09:54:41;;;;;;;2.92;2.60;;;;;;;;;;4938601;29;20030;-88
2022/05/25 09:57:38;;;;;;;3.15;2.83;;;;;;;;;;4942848;29;20380;-84
2022/05/25 10:00:15;;;;;;;2.85;2.47;;;;;;;;;;4907767;29;20054;-84
2022/05/25 10:02:49;;;;;;;2.85;2.63;;;;;;;;;;4944793;29;20074;-95
2022/05/25 10:05:19;;;;;;;3.97;2.33;;;;;;;;;;4947209;29;20027;-96
2022/05/25 10:07:56;;;;;;;2.97;2.13;;;;;;;;;;5049519;23;20055;-82
2022/05/25 10:10:55;;;;;;;2.50;1.85;;;;;;;;;;4967516;29;20031;-88
2022/05/25 10:13:36;;;;;;;2.92;2.70;;;;;;;;;;4967924;29;20038;-83
2022/05/25 10:16:49;;;;;;;2.40;2.20;;;;;;;;;;5013283;23;20409;-83
2022/05/25 10:19:18;;;;;;;3.55;3.10;;;;;;;;;;4934561;28;20055;-90
2022/05/25 10:21:56;;;;;;;4.93;3.03;;;;;;;;;;4956953;29;20023;-86
2022/05/25 10:24:24;;;;;;;2.97;2.60;;;;;;;;;;4937169;29;20504;-79
2022/05/25 10:26:54;;;;;;;3.78;3.45;;;;;;;;;;4936503;29;20030;-86
2022/05/25 10:38:28;;;;;;;2.95;2.38;;;;;;;;;;4937218;29;20078;-83
2022/05/25 10:40:55;;;;;;;2.70;2.50;;;;;;;;;;4936782;29;20043;-90
2022/05/25 10:43:29;;;;;;;2.58;2.38;;;;;;;;;;4936453;29;20055;-90
2022/05/25 10:45:58;;;;;;;2.45;2.25;;;;;;;;;;4936524;29;20510;-88
2022/05/25 10:48:53;;;;;;;3.10;2.83;;;;;;;;;;4936358;29;20032;-85
2022/05/25 10:51:28;;;;;;;3.22;2.75;;;;;;;;;;4936649;29;20039;-90
2022/05/25 10:57:16;;;;;;;3.75;3.13;;;;;;;;;;4957166;29;20410;-91
2022/05/25 10:59:50;;;;;;;3.80;3.35;;;;;;;;;;4955610;29;20102;-86
2022/05/25 11:02:42;;;;;;;3.45;2.97;;;;;;;;;;4955597;29;20206;-88
2022/05/25 11:05:37;;;;;;;3.60;3.30;;;;;;;;;;4956002;29;20023;-89
2022/05/25 11:08:27;;;;;;;3.70;3.13;;;;;;;;;;4961021;29;20154;-93
2022/05/25 11:11:11;;;;;;;3.22;2.92;;;;;;;;;;4956199;29;20375;-89
2022/05/25 11:14:04;;;;;;;6.45;3.47;;;;;;;;;;4955679;29;20097;-84
2022/05/25 11:16:32;;;;;;;3.20;3.00;;;;;;;;;;4955474;28;20044;-88
2022/05/25 11:19:16;;;;;;;4.95;2.88;;;;;;;;;;4955610;29;20063;-92
2022/05/25 11:21:47;;;;;;;4.20;3.50;;;;;;;;;;4955720;29;20462;-89
2022/05/25 11:24:50;;;;;;;4.57;3.40;;;;;;;;;;4955772;29;20035;-92
2022/05/25 11:27:41;;;;;;;9.02;3.72;;;;;;;;;;4956036;29;20055;-87
2022/05/25 11:30:22;;;;;;;4.93;3.55;;;;;;;;;;4955597;28;20382;-90
2022/05/25 11:33:18;;;;;;;5.20;4.20;;;;;;;;;;4960594;29;20027;-93
2022/05/25 11:36:18;;;;;;;10.13;4.28;;;;;;;;;;4960566;29;20363;-96
2022/05/25 11:39:02;;;;;;;6.80;4.45;;;;;;;;;;4960751;29;20077;-92
2022/05/25 11:41:36;;;;;;;10.52;4.78;;;;;;;;;;4960812;29;20035;-95
2022/05/25 11:44:08;;;;;;;10.00;4.72;;;;;;;;;;4960355;29;20058;-96
2022/05/25 11:46:43;;;;;;;7.03;4.40;;;;;;;;;;4963525;29;20470;-94
2022/05/25 16:46:52;;;;;;;4.43;3.33;;;;;;;;;;4944715;23;20051;-82
2022/05/25 16:49:27;;;;;;;3.40;3.10;;;;;;;;;;5013262;23;20039;-96
2022/05/25 16:51:53;;;;;;;4.53;3.65;;;;;;;;;;5001029;23;20048;-82
2022/05/25 16:55:07;;;;;;;3.40;3.10;;;;;;;;;;4990082;23;20430;-85
2022/05/25 16:58:13;;;;;;;4.47;3.17;;;;;;;;;;4952461;23;20040;-88
2022/05/25 17:00:38;;;;;;;3.90;3.20;;;;;;;;;;4951544;29;20044;-83
2022/05/25 17:03:04;;;;;;;3.25;3.03;;;;;;;;;;4946186;29;20051;-90
2022/05/25 17:05:29;;;;;;;7.43;3.10;;;;;;;;;;4937723;29;20494;-82
2022/05/25 17:07:55;;;;;;;5.07;3.63;;;;;;;;;;4936670;29;20046;-84
2022/05/25 17:10:22;;;;;;;5.35;4.00;;;;;;;;;;4938298;29;20025;-82
2022/05/25 17:12:48;;;;;;;4.38;3.30;;;;;;;;;;4937845;29;20040;-82
2022/05/25 17:15:13;;;;;;;6.50;3.60;;;;;;;;;;4937709;29;20028;-82
2022/05/25 17:17:39;;;;;;;6.05;3.90;;;;;;;;;;4937586;29;20038;-84
2022/05/25 17:22:50;;;;;;;4.13;3.50;;;;;;;;;;4937317;29;20389;-93
2022/05/25 17:25:15;;;;;;;4.18;3.78;;;;;;;;;;4920805;29;20114;-88
2022/05/25 17:27:40;;;;;;;6.30;3.47;;;;;;;;;;4937220;29;20030;-87
2022/05/25 17:30:07;;;;;;;4.15;3.55;;;;;;;;;;4922790;29;20462;-90
2022/05/25 17:32:32;;;;;;;4.43;3.30;;;;;;;;;;4947326;28;20027;-91
2022/05/25 17:34:59;;;;;;;6.32;3.65;;;;;;;;;;4946757;29;20477;-89
2022/05/25 17:42:54;;;;;;;4.05;3.60;;;;;;;;;;4937909;29;20048;-92
2022/05/25 17:45:21;;;;;;;4.95;3.65;;;;;;;;;;4921935;29;20039;-92
2022/05/25 17:47:47;;;;;;;7.70;4.03;;;;;;;;;;4938084;29;20032;-93
2022/05/25 17:50:14;;;;;;;7.97;3.67;;;;;;;;;;4920882;29;20067;-92
2022/05/25 17:52:40;;;;;;;9.05;3.88;;;;;;;;;;4937352;29;20031;-89
2022/05/25 17:55:07;;;;;;;5.82;3.50;;;;;;;;;;4939963;29;20032;-90
2022/05/25 17:57:33;;;;;;;6.63;3.40;;;;;;;;;;4922362;29;20051;-89
2022/05/25 17:59:59;;;;;;;3.63;3.20;;;;;;;;;;4938361;29;20058;-89
2022/05/25 18:02:27;;;;;;;6.47;3.60;;;;;;;;;;4932795;29;20075;-84
2022/05/25 18:05:16;;;;;;;7.63;3.67;;;;;;;;;;4963302;23;20074;-96
2022/05/25 18:07:42;;;;;;;4.35;3.28;;;;;;;;;;4946610;29;20080;-91
2022/05/25 18:10:21;;;;;;;8.77;3.92;;;;;;;;;;4948379;29;20091;-96
2022/05/25 18:12:49;;;;;;;4.30;3.45;;;;;;;;;;4947232;29;20028;-96
2022/05/25 18:15:50;;;;;;;4.43;3.05;;;;;;;;;;4958037;23;20028;-96
2022/05/25 18:18:20;;;;;;;4.30;3.90;;;;;;;;;;4942783;29;20056;-89
2022/05/25 18:20:45;;;;;;;6.47;3.88;;;;;;;;;;4937795;29;20028;-88
2022/05/25 18:23:12;;;;;;;9.00;5.10;;;;;;;;;;4941068;29;20079;-90
2022/05/25 18:25:40;;;;;;;8.30;4.10;;;;;;;;;;4942692;29;20023;-92
2022/05/25 18:28:08;;;;;;;4.07;3.67;;;;;;;;;;4924600;29;20082;-94
2022/05/25 18:31:23;;;;;;;10.35;4.15;;;;;;;;;;4946941;29;20266;-95
2022/05/25 18:33:49;;;;;;;8.65;4.10;;;;;;;;;;4952875;29;20039;-92
2022/05/25 18:36:37;;;;;;;5.35;4.30;;;;;;;;;;4935308;29;20024;-86
2022/05/25 18:39:38;;;;;;;8.05;4.30;;;;;;;;;;4964695;23;20066;-94
2022/05/25 18:42:50;;;;;;;8.25;5.10;;;;;;;;;;5035282;23;20082;-85
2022/05/25 18:45:18;;;;;;;7.85;4.60;;;;;;;;;;4964244;23;20047;-85
2022/05/25 18:47:55;;;;;;;9.00;4.65;;;;;;;;;;4952683;29;20106;-96
2022/05/25 18:51:15;;;;;;;7.85;4.05;;;;;;;;;;4966344;23;20047;-83
2022/05/25 18:54:38;;;;;;;6.65;3.95;;;;;;;;;;4913942;23;20051;-93
2022/05/25 18:57:39;;;;;;;7.72;3.85;;;;;;;;;;4990839;23;20083;-95
2022/05/25 19:00:23;;;;;;;6.93;4.38;;;;;;;;;;4977536;28;20023;-86
2022/05/25 19:02:48;;;;;;;7.57;4.78;;;;;;;;;;4963629;29;20034;-85
2022/05/25 19:05:15;;;;;;;8.98;5.00;;;;;;;;;;4970010;29;20024;-96
2022/05/25 19:07:46;;;;;;;5.57;4.10;;;;;;;;;;4977215;28;20032;-96
2022/05/25 19:10:22;;;;;;;7.55;4.00;;;;;;;;;;4978306;28;20015;-84
2022/05/25 19:13:12;;;;;;;6.05;4.32;;;;;;;;;;4979624;23;20095;-85
2022/05/25 19:15:59;;;;;;;5.93;4.15;;;;;;;;;;4984923;23;20047;-84
2022/05/25 19:18:36;;;;;;;9.13;4.03;;;;;;;;;;4978666;28;20055;-84
2022/05/25 19:21:50;;;;;;;9.43;4.55;;;;;;;;;;4977511;28;20038;-84
2022/05/25 19:24:28;;;;;;;13.02;4.75;;;;;;;;;;4937336;28;20024;-87
2022/05/25 19:27:13;;;;;;;6.53;4.38;;;;;;;;;;4941192;29;20051;-94
2022/05/25 19:29:42;;;;;;;7.68;4.50;;;;;;;;;;4955337;28;20039;-87
2022/05/25 19:32:07;;;;;;;6.20;4.68;;;;;;;;;;4939752;29;20047;-86
2022/05/25 19:34:33;;;;;;;12.13;4.90;;;;;;;;;;4936050;29;20036;-87
2022/05/25 19:37:00;;;;;;;8.57;4.45;;;;;;;;;;4938645;29;20036;-93
2022/05/25 19:39:38;;;;;;;7.47;3.70;;;;;;;;;;4936840;29;20115;-87
2022/05/25 19:42:13;;;;;;;5.32;3.38;;;;;;;;;;4936456;29;20467;-88
2022/05/25 19:44:46;;;;;;;4.47;3.08;;;;;;;;;;4936168;29;20032;-87
2022/05/25 19:47:18;;;;;;;7.38;3.40;;;;;;;;;;4936008;29;20028;-90
2022/05/25 19:52:27;;;;;;;6.50;3.20;;;;;;;;;;4937556;29;20038;-86
2022/05/25 19:54:53;;;;;;;6.93;3.20;;;;;;;;;;4940884;29;20020;-94
2022/05/25 19:57:36;;;;;;;7.28;4.15;;;;;;;;;;4935115;29;20032;-92
2022/05/25 20:00:06;;;;;;;5.60;3.15;;;;;;;;;;4940541;29;20467;-96
2022/05/25 20:02:32;;;;;;;5.28;3.22;;;;;;;;;;4940292;29;20030;-96
2022/05/25 20:04:57;;;;;;;6.78;3.55;;;;;;;;;;4939840;29;20032;-92
2022/05/25 20:07:23;;;;;;;5.28;3.17;;;;;;;;;;4940277;29;20031;-96
2022/05/25 20:09:49;;;;;;;6.32;3.05;;;;;;;;;;4923477;29;20415;-85
2022/05/25 20:12:15;;;;;;;3.90;2.80;;;;;;;;;;4939711;29;20043;-94
2022/05/25 20:14:40;;;;;;;4.65;2.85;;;;;;;;;;4919348;29;20056;-85
2022/05/25 20:17:06;;;;;;;4.47;2.60;;;;;;;;;;4903166;29;20028;-94
2022/05/25 20:19:31;;;;;;;3.50;2.83;;;;;;;;;;4918942;29;20111;-89
2022/05/25 20:21:58;;;;;;;3.88;2.83;;;;;;;;;;4932386;29;20078;-91
2022/05/25 20:24:24;;;;;;;4.43;2.90;;;;;;;;;;4938930;29;20023;-91
2022/05/25 20:26:49;;;;;;;3.47;2.70;;;;;;;;;;4939538;29;20031;-89
2022/05/25 20:29:15;;;;;;;4.65;2.33;;;;;;;;;;4939143;29;20023;-86
2022/05/25 20:31:40;;;;;;;4.05;2.58;;;;;;;;;;4939074;29;20360;-92
2022/05/25 20:34:06;;;;;;;5.97;3.20;;;;;;;;;;4939027;29;20099;-88
2022/05/25 20:36:31;;;;;;;6.13;2.40;;;;;;;;;;4939484;29;20074;-88
2022/05/25 20:38:57;;;;;;;4.05;2.70;;;;;;;;;;4939414;29;20024;-91
2022/05/25 20:41:23;;;;;;;5.30;2.95;;;;;;;;;;4939186;29;20038;-92
2022/05/25 20:43:48;;;;;;;4.45;2.83;;;;;;;;;;4939256;29;20107;-92
2022/05/25 20:46:14;;;;;;;5.35;3.55;;;;;;;;;;4939176;29;20074;-91
2022/05/25 20:48:40;;;;;;;3.28;2.97;;;;;;;;;;4938315;29;20095;-91
2022/05/25 20:51:06;;;;;;;3.92;3.45;;;;;;;;;;4939179;29;20470;-88
2022/05/25 20:53:32;;;;;;;3.30;2.90;;;;;;;;;;4922077;29;20027;-91
2022/05/25 20:56:04;;;;;;;3.97;2.60;;;;;;;;;;4939167;29;20542;-90
2022/05/25 20:58:29;;;;;;;4.28;3.05;;;;;;;;;;4938776;29;20019;-91
2022/05/25 21:00:54;;;;;;;7.15;3.28;;;;;;;;;;4939056;29;20090;-88
2022/05/25 21:03:20;;;;;;;5.30;3.40;;;;;;;;;;4938885;29;20028;-91
2022/05/25 21:05:46;;;;;;;5.15;3.25;;;;;;;;;;4938782;29;20030;-92
2022/05/25 21:08:11;;;;;;;3.97;3.20;;;;;;;;;;4938605;29;20032;-92
2022/05/25 21:10:39;;;;;;;4.47;2.97;;;;;;;;;;4938799;29;20401;-90
2022/05/25 21:13:05;;;;;;;5.07;3.38;;;;;;;;;;4938388;29;20391;-90
2022/05/25 21:15:31;;;;;;;4.47;3.13;;;;;;;;;;4939506;29;20059;-90
2022/05/25 21:17:57;;;;;;;2.83;2.63;;;;;;;;;;4939357;29;20063;-90
2022/05/25 21:20:23;;;;;;;4.30;3.63;;;;;;;;;;4938812;29;20027;-88
2022/05/25 21:22:49;;;;;;;6.63;3.25;;;;;;;;;;4939144;29;20040;-90
2022/05/25 21:25:16;;;;;;;4.13;3.47;;;;;;;;;;4921365;29;20042;-91
2022/05/25 21:27:42;;;;;;;3.88;2.80;;;;;;;;;;4938629;29;20032;-91
2022/05/25 21:30:08;;;;;;;4.30;3.40;;;;;;;;;;4938635;29;20493;-89
2022/05/25 21:32:52;;;;;;;3.88;3.10;;;;;;;;;;4938238;29;20068;-92
2022/05/25 21:35:18;;;;;;;5.43;3.38;;;;;;;;;;4938230;29;20098;-89
2022/05/25 21:37:43;;;;;;;3.50;3.20;;;;;;;;;;4938400;29;20027;-92
2022/05/25 21:40:09;;;;;;;5.63;3.30;;;;;;;;;;4938127;29;20026;-93
2022/05/25 21:42:35;;;;;;;7.32;4.13;;;;;;;;;;4938200;29;20058;-92
2022/05/25 21:45:01;;;;;;;3.90;3.50;;;;;;;;;;4938157;29;20086;-90
2022/05/25 21:50:10;;;;;;;3.55;3.05;;;;;;;;;;4937882;29;20051;-92
2022/05/25 21:52:40;;;;;;;4.72;3.28;;;;;;;;;;4937855;29;20020;-92
2022/05/25 21:55:08;;;;;;;6.68;3.90;;;;;;;;;;4937985;29;20039;-92
2022/05/25 21:57:34;;;;;;;5.38;3.33;;;;;;;;;;4920790;29;20051;-91
2022/05/25 22:00:00;;;;;;;4.80;3.30;;;;;;;;;;4937702;29;20036;-91
2022/05/25 22:02:26;;;;;;;4.10;3.40;;;;;;;;;;4937746;29;20040;-92
2022/05/25 22:04:51;;;;;;;6.88;3.30;;;;;;;;;;4938210;29;20039;-93
2022/05/25 22:07:19;;;;;;;7.30;3.47;;;;;;;;;;4938199;29;20032;-92
2022/05/25 22:09:46;;;;;;;4.60;3.50;;;;;;;;;;4937747;29;20151;-92
2022/05/25 22:12:15;;;;;;;3.63;3.25;;;;;;;;;;4937572;29;20020;-92
2022/05/25 22:14:46;;;;;;;9.48;3.97;;;;;;;;;;4937250;29;20063;-91
2022/05/25 22:17:12;;;;;;;4.07;3.63;;;;;;;;;;4937523;29;20467;-92
2022/05/25 22:19:37;;;;;;;6.20;3.60;;;;;;;;;;4937567;29;20031;-89
2022/05/25 22:22:03;;;;;;;4.18;3.17;;;;;;;;;;4937569;29;20067;-92
2022/05/25 22:24:29;;;;;;;5.40;3.88;;;;;;;;;;4937121;29;20028;-87
2022/05/25 22:26:56;;;;;;;6.13;4.20;;;;;;;;;;4937671;29;20115;-92
2022/05/25 22:29:22;;;;;;;5.55;3.53;;;;;;;;;;4937439;29;20083;-92
2022/05/25 22:31:50;;;;;;;3.78;3.38;;;;;;;;;;4938287;29;20379;-92
2022/05/25 22:34:15;;;;;;;5.90;2.88;;;;;;;;;;4937154;29;20032;-92
2022/05/25 22:36:41;;;;;;;3.53;3.13;;;;;;;;;;4937270;29;20082;-93
2022/05/25 22:39:08;;;;;;;5.03;3.72;;;;;;;;;;4936695;29;20036;-85
